Time;durP1;ratioP1;P1;durP2;ratioP2;P2;SDS_P1;SDS_P2;PMS_P1;PMS_P2;Temp;Humidity;BMP_temperature;BMP_pressure;BME280_temperature;BME280_humidity;BME280_pressure;Samples;Min_cycle;Max_cycle;Signal;HPM_P1;HPM_P2
2022/03/24 00:01:20;;;;;;;63.10;26.80;;;;;;;4.24;49.39;100421.77;103138;1306;24229;-28
2022/03/24 00:03:46;;;;;;;59.50;24.60;;;;;;;4.34;50.69;100423.23;103294;1305;24178;-29
2022/03/24 00:06:13;;;;;;;69.30;22.80;;;;;;;4.47;49.67;100425.68;103005;1306;24364;-27
2022/03/24 00:08:39;;;;;;;65.10;24.20;;;;;;;4.51;50.13;100427.08;103256;1305;24217;-28
2022/03/24 00:11:05;;;;;;;61.30;24.50;;;;;;;4.49;50.32;100426.77;103217;1306;24265;-25
2022/03/24 00:13:31;;;;;;;62.70;25.40;;;;;;;4.57;49.97;100425.52;103130;1306;24375;-29
2022/03/24 00:15:58;;;;;;;64.40;24.40;;;;;;;4.60;50.80;100425.44;103222;1306;24325;-27
2022/03/24 00:18:23;;;;;;;62.00;24.80;;;;;;;4.57;50.56;100431.36;103215;1305;24376;-29
2022/03/24 00:20:49;;;;;;;54.50;27.00;;;;;;;4.56;50.47;100428.05;103192;1306;24305;-25
2022/03/24 00:23:15;;;;;;;56.60;23.50;;;;;;;4.57;50.63;100434.23;103312;1305;22887;-30
2022/03/24 00:25:41;;;;;;;59.50;25.00;;;;;;;4.57;51.10;100434.91;103172;1305;24224;-28
2022/03/24 00:28:07;;;;;;;50.40;20.30;;;;;;;4.57;51.25;100434.34;103261;1305;24474;-29
2022/03/24 00:30:32;;;;;;;57.50;23.80;;;;;;;4.53;50.96;100431.90;103158;1306;24309;-25
2022/03/24 00:32:58;;;;;;;47.80;21.00;;;;;;;4.46;51.14;100429.65;103208;1304;22527;-25
2022/03/24 00:35:24;;;;;;;63.60;23.30;;;;;;;4.40;51.74;100427.15;103194;1306;24257;-25
2022/03/24 00:37:51;;;;;;;55.70;24.80;;;;;;;4.36;51.65;100426.63;103172;1305;24255;-28
2022/03/24 00:40:17;;;;;;;54.20;24.70;;;;;;;4.30;51.59;100428.94;103192;1305;24238;-28
2022/03/24 00:42:43;;;;;;;50.20;22.90;;;;;;;4.27;52.01;100424.95;103226;1305;24303;-28
2022/03/24 00:45:10;;;;;;;68.60;25.20;;;;;;;4.25;51.54;100431.98;103177;1306;24255;-25
2022/03/24 00:47:36;;;;;;;66.00;24.20;;;;;;;4.18;52.16;100434.32;103343;1304;24524;-30
2022/03/24 00:50:03;;;;;;;60.80;25.30;;;;;;;4.12;52.58;100437.48;103190;1306;25458;-28
2022/03/24 00:52:29;;;;;;;58.40;23.80;;;;;;;4.07;52.82;100437.26;103267;1305;25367;-28
2022/03/24 00:54:54;;;;;;;55.00;25.10;;;;;;;3.99;52.96;100435.42;103158;1306;24279;-28
2022/03/24 00:57:20;;;;;;;47.80;24.40;;;;;;;3.93;53.56;100432.41;103233;1305;24362;-28
2022/03/24 00:59:46;;;;;;;53.80;22.40;;;;;;;3.86;53.81;100433.02;103167;1305;24221;-28
2022/03/24 01:02:12;;;;;;;74.70;25.90;;;;;;;3.81;53.90;100432.69;103180;1305;24359;-25
2022/03/24 01:04:38;;;;;;;61.50;26.80;;;;;;;3.78;54.19;100436.84;103178;1306;24350;-27
2022/03/24 01:07:04;;;;;;;68.30;28.00;;;;;;;3.75;53.86;100439.52;103187;1305;22509;-26
2022/03/24 01:09:30;;;;;;;50.90;22.90;;;;;;;3.76;53.68;100441.94;103004;1306;24307;-26
2022/03/24 01:11:56;;;;;;;63.50;25.20;;;;;;;3.71;54.40;100440.20;103181;1305;24253;-25
2022/03/24 01:14:22;;;;;;;64.70;24.70;;;;;;;3.66;54.38;100439.89;103158;1306;24326;-27
2022/03/24 01:16:51;;;;;;;51.90;23.60;;;;;;;3.64;54.45;100437.46;103268;1305;24318;-25
2022/03/24 01:19:17;;;;;;;50.60;22.40;;;;;;;3.64;54.17;100439.35;103241;1306;24248;-27
2022/03/24 01:21:43;;;;;;;53.60;22.50;;;;;;;3.64;54.40;100440.12;103243;1304;24271;-28
2022/03/24 01:24:09;;;;;;;64.50;23.70;;;;;;;3.61;54.50;100439.96;103179;1306;24220;-25
2022/03/24 01:26:35;;;;;;;52.30;25.40;;;;;;;3.56;54.76;100432.64;103222;1305;22614;-26
2022/03/24 01:29:01;;;;;;;64.90;24.00;;;;;;;3.52;55.28;100433.86;103171;1306;24268;-25
2022/03/24 01:31:27;;;;;;;49.60;23.40;;;;;;;3.47;54.82;100431.75;103207;1305;24229;-26
2022/03/24 01:33:52;;;;;;;59.30;23.10;;;;;;;3.43;55.04;100435.63;103178;1305;24365;-25
2022/03/24 01:36:18;;;;;;;66.10;21.40;;;;;;;3.38;55.48;100437.30;103225;1306;24236;-26
2022/03/24 01:38:44;;;;;;;65.90;25.70;;;;;;;3.33;55.87;100441.95;103218;1305;24262;-29
2022/03/24 01:41:10;;;;;;;53.30;24.00;;;;;;;3.31;55.59;100439.81;103145;1306;24225;-26
2022/03/24 01:43:36;;;;;;;60.20;25.40;;;;;;;3.29;55.77;100439.79;103240;1305;24374;-25
2022/03/24 01:46:02;;;;;;;64.80;25.70;;;;;;;3.29;55.54;100440.85;103182;1306;22640;-31
2022/03/24 01:48:28;;;;;;;58.50;20.50;;;;;;;3.27;55.44;100437.96;103217;1305;24228;-30
2022/03/24 01:50:55;;;;;;;56.80;26.20;;;;;;;3.26;55.73;100435.58;103200;1307;24382;-25
2022/03/24 01:53:21;;;;;;;55.80;22.50;;;;;;;3.25;55.48;100435.81;103214;1305;24290;-25
2022/03/24 01:55:48;;;;;;;57.70;23.70;;;;;;;3.25;55.45;100436.16;103158;1306;24219;-29
2022/03/24 01:58:13;;;;;;;55.90;24.50;;;;;;;3.26;55.17;100436.80;103219;1305;24186;-28
2022/03/24 02:00:39;;;;;;;49.20;21.70;;;;;;;3.25;54.95;100441.35;103061;1306;25492;-27
2022/03/24 02:03:06;;;;;;;55.80;24.20;;;;;;;3.20;55.04;100441.38;103178;1305;24252;-29
2022/03/24 02:05:32;;;;;;;59.50;21.80;;;;;;;3.14;55.45;100437.26;103056;1306;24355;-28
2022/03/24 02:08:02;;;;;;;42.80;18.70;;;;;;;3.06;55.90;100438.82;103302;1305;24247;-28
2022/03/24 02:10:28;;;;;;;54.90;23.10;;;;;;;2.97;56.02;100435.98;103209;1306;24379;-29
2022/03/24 02:12:56;;;;;;;47.90;19.80;;;;;;;2.89;55.95;100438.73;103192;1305;24220;-28
2022/03/24 02:15:24;;;;;;;55.50;26.00;;;;;;;2.80;56.69;100446.15;103189;1306;24255;-26
2022/03/24 02:17:52;;;;;;;61.00;24.00;;;;;;;2.76;56.45;100442.77;103206;1305;24260;-26
2022/03/24 02:20:19;;;;;;;47.80;20.90;;;;;;;2.71;56.28;100440.54;103231;1305;24259;-29
2022/03/24 02:22:47;;;;;;;60.10;24.40;;;;;;;2.66;57.03;100439.49;103270;1305;24303;-25
2022/03/24 02:25:12;;;;;;;55.20;23.10;;;;;;;2.63;57.10;100443.93;103155;1307;24263;-29
2022/03/24 02:27:39;;;;;;;55.30;22.20;;;;;;;2.62;57.37;100443.52;103178;1305;24288;-25
2022/03/24 02:30:06;;;;;;;48.40;20.00;;;;;;;2.59;57.42;100444.80;103230;1307;22619;-27
2022/03/24 02:32:32;;;;;;;55.50;26.10;;;;;;;2.60;57.36;100446.12;103264;1306;24412;-31
2022/03/24 02:34:57;;;;;;;49.00;23.50;;;;;;;2.58;57.29;100446.14;103184;1306;24252;-28
2022/03/24 02:37:25;;;;;;;82.30;24.60;;;;;;;2.55;57.07;100449.34;103234;1305;24257;-30
2022/03/24 02:39:53;;;;;;;57.90;25.10;;;;;;;2.51;57.32;100451.64;103169;1306;24518;-25
2022/03/24 02:42:21;;;;;;;55.80;25.70;;;;;;;2.44;57.53;100449.48;103204;1304;22768;-25
2022/03/24 02:44:49;;;;;;;58.50;22.20;;;;;;;2.40;58.00;100454.05;103221;1305;24448;-28
2022/03/24 02:47:15;;;;;;;60.90;24.70;;;;;;;2.39;57.33;100455.19;103161;1306;24369;-29
2022/03/24 02:49:43;;;;;;;61.40;23.80;;;;;;;2.36;57.73;100454.92;103199;1305;22801;-26
2022/03/24 02:52:09;;;;;;;57.80;24.50;;;;;;;2.31;57.98;100455.64;103171;1306;24218;-28
2022/03/24 02:54:35;;;;;;;65.60;26.40;;;;;;;2.27;58.30;100454.19;103238;1305;23993;-28
2022/03/24 02:57:01;;;;;;;53.30;21.00;;;;;;;2.23;58.62;100458.69;103118;1306;24192;-28
2022/03/24 02:59:27;;;;;;;54.40;20.30;;;;;;;2.22;58.55;100456.14;103237;1305;24300;-24
2022/03/24 03:01:56;;;;;;;57.70;22.30;;;;;;;2.20;58.96;100458.92;103110;1306;22639;-25
2022/03/24 03:04:22;;;;;;;57.40;23.60;;;;;;;2.19;58.69;100458.48;103211;1305;22637;-25
2022/03/24 03:06:48;;;;;;;62.90;23.40;;;;;;;2.17;59.12;100462.70;103083;1307;22516;-28
2022/03/24 03:09:16;;;;;;;73.50;24.20;;;;;;;2.17;59.07;100465.90;103206;1305;22520;-25
2022/03/24 03:11:44;;;;;;;47.50;20.30;;;;;;;2.12;59.16;100469.09;103148;1306;22852;-28
2022/03/24 03:14:11;;;;;;;52.30;23.40;;;;;;;2.08;59.67;100469.95;103245;1305;22820;-27
2022/03/24 03:16:37;;;;;;;51.60;22.30;;;;;;;2.02;59.44;100471.59;103174;1306;24333;-27
2022/03/24 03:19:03;;;;;;;36.70;17.50;;;;;;;1.96;60.49;100470.64;103246;1305;24266;-28
2022/03/24 03:21:30;;;;;;;42.10;19.80;;;;;;;1.92;59.80;100469.23;103166;1306;24224;-30
2022/03/24 03:23:55;;;;;;;50.10;19.20;;;;;;;1.86;60.54;100466.98;103318;1305;24216;-29
2022/03/24 03:26:23;;;;;;;34.60;16.50;;;;;;;1.80;61.24;100467.09;103139;1307;24248;-29
2022/03/24 03:28:52;;;;;;;52.90;22.20;;;;;;;1.78;61.67;100464.55;103166;1305;24357;-26
2022/03/24 03:31:20;;;;;;;37.40;17.90;;;;;;;1.73;60.97;100463.02;103119;1306;22499;-25
2022/03/24 03:33:45;;;;;;;45.00;18.80;;;;;;;1.68;61.43;100466.21;103149;1305;24527;-25
2022/03/24 03:36:12;;;;;;;57.40;23.40;;;;;;;1.62;60.93;100469.67;103098;1306;22636;-28
2022/03/24 03:38:38;;;;;;;57.20;23.80;;;;;;;1.53;61.47;100469.46;103170;1305;24368;-27
2022/03/24 03:41:04;;;;;;;43.10;20.10;;;;;;;1.44;60.95;100473.48;103169;1306;24320;-27
2022/03/24 03:43:30;;;;;;;71.40;26.60;;;;;;;1.36;62.47;100472.63;103186;1305;24472;-26
2022/03/24 03:45:55;;;;;;;61.70;24.70;;;;;;;1.31;62.40;100473.30;103175;1306;24360;-29
2022/03/24 03:48:21;;;;;;;57.50;25.20;;;;;;;1.30;62.00;100475.17;103193;1305;22766;-31
2022/03/24 03:50:48;;;;;;;67.40;24.40;;;;;;;1.31;62.22;100478.58;103153;1306;24328;-25
2022/03/24 03:53:14;;;;;;;53.10;23.00;;;;;;;1.32;62.01;100477.33;103279;1305;24253;-28
2022/03/24 03:55:40;;;;;;;59.70;25.80;;;;;;;1.32;62.33;100478.17;103158;1307;24469;-25
2022/03/24 03:58:06;;;;;;;58.10;21.10;;;;;;;1.34;61.90;100475.41;103183;1305;24217;-29
2022/03/24 04:03:04;;;;;;;61.30;23.90;;;;;;;1.30;62.45;100478.18;103196;1305;24270;-28
2022/03/24 04:05:30;;;;;;;50.60;24.30;;;;;;;1.29;62.49;100477.36;103170;1306;24319;-29
2022/03/24 04:07:56;;;;;;;61.30;25.10;;;;;;;1.29;62.19;100478.95;103226;1305;24450;-25
2022/03/24 04:10:22;;;;;;;65.50;23.30;;;;;;;1.28;62.59;100480.05;103215;1306;24327;-26
2022/03/24 04:12:50;;;;;;;64.20;22.60;;;;;;;1.27;62.77;100480.14;103019;1305;402202;-28
2022/03/24 04:15:17;;;;;;;72.50;23.70;;;;;;;1.27;62.10;100480.88;103225;1305;24317;-25
2022/03/24 04:17:42;;;;;;;50.60;21.00;;;;;;;1.23;63.23;100482.92;103237;1306;22879;-30
2022/03/24 04:20:09;;;;;;;60.30;24.10;;;;;;;1.20;63.34;100480.31;103187;1305;24308;-26
2022/03/24 04:22:35;;;;;;;52.80;20.40;;;;;;;1.17;63.29;100483.70;102985;1308;24361;-31
2022/03/24 04:25:02;;;;;;;70.40;24.30;;;;;;;1.12;63.75;100487.55;103155;1305;24409;-29
2022/03/24 04:27:29;;;;;;;43.70;21.80;;;;;;;1.05;64.12;100493.70;103171;1306;24401;-28
2022/03/24 04:29:55;;;;;;;60.00;22.60;;;;;;;1.02;64.26;100495.70;103144;1305;24258;-26
2022/03/24 04:32:21;;;;;;;66.10;22.90;;;;;;;0.96;64.40;100499.30;103137;1307;24263;-25
2022/03/24 04:34:46;;;;;;;55.60;24.20;;;;;;;0.93;64.39;100497.55;103202;1305;22893;-29
2022/03/24 04:37:12;;;;;;;70.00;24.50;;;;;;;0.93;64.21;100496.14;103239;1307;24232;-28
2022/03/24 04:39:38;;;;;;;53.30;21.50;;;;;;;0.92;64.35;100494.82;103185;1305;24379;-27
2022/03/24 04:42:06;;;;;;;59.60;25.40;;;;;;;0.93;64.38;100498.09;103197;1307;24220;-26
2022/03/24 04:44:33;;;;;;;37.70;20.00;;;;;;;0.92;64.65;100500.59;103209;1305;24184;-25
2022/03/24 04:46:59;;;;;;;47.10;20.70;;;;;;;0.91;64.62;100499.43;103162;1306;24251;-29
2022/03/24 04:49:26;;;;;;;44.90;20.30;;;;;;;0.92;64.70;100498.65;103234;1305;22515;-26
2022/03/24 04:51:53;;;;;;;50.80;22.30;;;;;;;0.93;64.63;100500.05;103112;1306;22854;-37
2022/03/24 04:54:19;;;;;;;55.20;21.60;;;;;;;0.91;64.73;100499.81;103220;1305;24192;-29
2022/03/24 04:56:45;;;;;;;56.90;21.70;;;;;;;0.92;64.58;100501.11;103170;1307;22643;-28
2022/03/24 04:59:12;;;;;;;33.90;17.30;;;;;;;0.95;64.63;100500.23;103209;1305;24228;-27
2022/03/24 05:01:38;;;;;;;68.40;25.70;;;;;;;0.97;64.71;100502.94;103185;1306;25360;-28
2022/03/24 05:04:04;;;;;;;55.30;21.60;;;;;;;0.99;64.62;100501.71;103227;1305;24222;-28
2022/03/24 05:06:31;;;;;;;67.70;26.00;;;;;;;1.03;64.89;100502.34;103173;1307;24262;-29
2022/03/24 05:08:57;;;;;;;64.30;25.90;;;;;;;1.08;64.50;100501.46;103183;1305;24305;-27
2022/03/24 05:11:23;;;;;;;55.40;23.30;;;;;;;1.09;64.46;100502.45;103142;1306;22662;-28
2022/03/24 05:13:51;;;;;;;52.40;23.30;;;;;;;1.06;64.42;100501.56;103180;1305;24315;-28
2022/03/24 05:16:18;;;;;;;58.30;23.80;;;;;;;1.08;65.05;100501.65;103240;1307;24336;-26
2022/03/24 05:18:44;;;;;;;74.70;24.70;;;;;;;1.08;64.48;100506.39;103204;1305;24264;-29
2022/03/24 05:21:10;;;;;;;47.40;20.40;;;;;;;1.07;64.51;100511.94;103180;1307;22522;-27
2022/03/24 05:23:36;;;;;;;49.80;20.10;;;;;;;1.05;64.49;100512.23;103244;1305;24299;-27
2022/03/24 05:26:01;;;;;;;51.60;21.60;;;;;;;1.03;64.75;100511.66;103143;1306;24352;-24
2022/03/24 05:28:27;;;;;;;46.10;21.60;;;;;;;1.02;65.05;100508.39;103273;1305;24246;-27
2022/03/24 05:30:53;;;;;;;69.30;24.30;;;;;;;1.00;64.79;100510.27;103186;1307;24278;-27
2022/03/24 05:33:19;;;;;;;50.30;23.10;;;;;;;1.00;64.62;100511.67;103194;1305;24236;-28
2022/03/24 05:35:44;;;;;;;50.90;25.20;;;;;;;1.02;64.55;100510.84;103143;1306;24353;-30
2022/03/24 05:38:10;;;;;;;53.70;22.30;;;;;;;1.04;64.74;100511.77;103174;1305;22522;-30
2022/03/24 05:40:36;;;;;;;46.70;21.90;;;;;;;1.06;64.89;100516.78;103088;1306;22874;-24
2022/03/24 05:43:02;;;;;;;46.70;19.80;;;;;;;1.12;64.93;100517.88;103210;1305;22854;-25
2022/03/24 05:45:28;;;;;;;54.80;22.90;;;;;;;1.23;64.89;100514.14;103125;1306;24219;-30
2022/03/24 05:47:54;;;;;;;45.80;20.60;;;;;;;1.27;64.74;100512.05;103258;1305;24252;-25
2022/03/24 05:50:20;;;;;;;65.60;26.20;;;;;;;1.30;64.64;100515.73;103210;1306;24253;-28
2022/03/24 05:52:49;;;;;;;71.80;28.30;;;;;;;1.34;64.17;100517.35;103203;1305;24294;-28
2022/03/24 05:55:16;;;;;;;55.40;22.20;;;;;;;1.37;64.28;100518.20;103202;1306;22522;-31
2022/03/24 05:57:44;;;;;;;65.70;23.50;;;;;;;1.38;64.34;100517.11;103244;1305;24246;-28
2022/03/24 06:00:10;;;;;;;50.50;19.10;;;;;;;1.41;64.50;100521.88;103199;1306;24238;-24
2022/03/24 06:02:36;;;;;;;53.80;22.50;;;;;;;1.43;64.81;100521.36;103209;1305;24423;-25
2022/03/24 06:05:08;;;;;;;57.80;19.90;;;;;;;1.50;64.43;100527.73;103141;1306;24231;-27
2022/03/24 06:07:34;;;;;;;51.10;21.70;;;;;;;1.55;64.30;100527.04;103199;1305;24679;-29
2022/03/24 06:10:00;;;;;;;78.40;27.60;;;;;;;1.64;64.23;100527.23;103357;1305;24256;-30
2022/03/24 06:12:26;;;;;;;63.20;26.00;;;;;;;1.72;64.09;100529.45;103199;1306;24229;-27
2022/03/24 06:14:51;;;;;;;59.70;26.90;;;;;;;1.77;64.24;100535.66;103181;1305;24359;-27
2022/03/24 06:17:20;;;;;;;67.00;26.00;;;;;;;1.85;64.15;100535.93;103235;1306;24280;-25
2022/03/24 06:19:49;;;;;;;50.20;22.60;;;;;;;2.01;63.54;100536.36;103156;1305;24218;-29
2022/03/24 06:22:16;;;;;;;52.50;23.40;;;;;;;2.15;63.48;100539.71;103147;1306;22649;-28
2022/03/24 06:24:42;;;;;;;45.50;20.80;;;;;;;2.35;63.24;100541.19;103233;1305;22515;-25
2022/03/24 06:27:08;;;;;;;44.30;21.70;;;;;;;2.56;62.58;100540.50;103144;1306;24311;-27
2022/03/24 06:29:34;;;;;;;49.10;19.40;;;;;;;2.74;62.13;100541.42;103242;1305;24225;-29
2022/03/24 06:32:00;;;;;;;51.80;23.60;;;;;;;2.95;61.59;100542.84;103124;1306;24346;-25
2022/03/24 06:34:26;;;;;;;53.00;25.10;;;;;;;3.18;61.22;100546.98;103177;1305;24326;-28
2022/03/24 06:36:54;;;;;;;51.30;23.30;;;;;;;3.39;61.01;100549.95;103134;1306;24307;-26
2022/03/24 06:39:20;;;;;;;51.10;23.70;;;;;;;3.73;60.79;100544.91;103210;1305;24306;-28
2022/03/24 06:41:47;;;;;;;48.10;21.20;;;;;;;4.10;60.57;100543.31;103107;1306;24220;-25
2022/03/24 06:44:12;;;;;;;57.00;25.50;;;;;;;4.28;59.35;100547.70;103199;1305;24218;-24
2022/03/24 06:46:38;;;;;;;59.20;25.10;;;;;;;4.45;58.92;100554.08;103138;1306;24260;-26
2022/03/24 06:49:05;;;;;;;55.50;25.40;;;;;;;4.54;58.59;100556.30;103173;1305;24234;-24
2022/03/24 06:51:31;;;;;;;55.60;23.10;;;;;;;4.47;57.60;100553.19;103173;1306;24229;-28
2022/03/24 06:53:57;;;;;;;62.50;26.40;;;;;;;4.55;58.06;100554.65;103255;1305;24372;-24
2022/03/24 06:56:24;;;;;;;57.80;24.30;;;;;;;4.67;58.00;100553.96;103154;1306;24420;-27
2022/03/24 06:58:50;;;;;;;61.20;27.00;;;;;;;4.78;57.25;100561.05;103294;1305;23825;-28
2022/03/24 07:01:17;;;;;;;50.90;23.20;;;;;;;4.88;57.47;100561.95;103214;1306;24292;-29
2022/03/24 07:03:43;;;;;;;44.80;24.10;;;;;;;5.01;57.33;100564.70;103255;1305;24433;-28
2022/03/24 07:06:09;;;;;;;46.10;24.20;;;;;;;4.85;57.41;100560.98;103213;1306;24321;-25
2022/03/24 07:08:35;;;;;;;53.50;25.60;;;;;;;4.97;57.62;100565.24;103289;1305;24256;-28
2022/03/24 07:11:03;;;;;;;62.80;26.70;;;;;;;5.18;57.60;100561.44;103218;1306;24407;-28
2022/03/24 07:13:29;;;;;;;57.60;26.20;;;;;;;5.56;56.87;100561.12;103328;1305;24358;-28
2022/03/24 07:15:55;;;;;;;56.50;26.40;;;;;;;5.82;56.29;100564.75;103217;1306;24385;-28
2022/03/24 07:18:20;;;;;;;57.40;28.50;;;;;;;5.91;55.93;100565.02;103188;1305;24160;-28
2022/03/24 07:20:46;;;;;;;64.00;28.00;;;;;;;6.16;55.32;100565.02;103166;1306;24297;-28
2022/03/24 07:23:12;;;;;;;91.20;33.80;;;;;;;6.31;54.79;100566.50;103213;1305;24218;-27
2022/03/24 07:25:39;;;;;;;104.60;36.70;;;;;;;6.36;54.98;100566.44;103146;1306;24262;-30
2022/03/24 07:28:05;;;;;;;54.10;23.30;;;;;;;6.67;54.74;100568.75;103223;1305;24320;-25
2022/03/24 07:30:31;;;;;;;63.00;28.40;;;;;;;7.00;53.13;100573.13;103152;1306;24284;-25
2022/03/24 07:32:58;;;;;;;89.10;29.60;;;;;;;7.05;53.17;100572.33;103291;1305;22897;-26
2022/03/24 07:35:24;;;;;;;62.10;24.30;;;;;;;7.08;53.39;100578.72;103179;1307;24480;-24
2022/03/24 07:37:51;;;;;;;64.70;27.00;;;;;;;7.35;52.38;100577.96;103228;1305;22881;-28
2022/03/24 07:40:18;;;;;;;69.90;32.60;;;;;;;7.85;50.33;100574.89;103167;1307;24376;-24
2022/03/24 07:42:45;;;;;;;52.20;26.10;;;;;;;7.97;48.60;100573.02;103251;1305;23162;-28
2022/03/24 07:45:12;;;;;;;77.20;30.30;;;;;;;8.11;47.21;100573.94;103180;1306;24491;-25
2022/03/24 07:48:05;;;;;;;54.90;27.70;;;;;;;7.98;47.48;100573.86;103241;1305;24180;-30
2022/03/24 07:50:32;;;;;;;53.80;25.80;;;;;;;8.22;47.29;100573.20;103092;1306;24262;-30
2022/03/24 07:53:05;;;;;;;45.20;22.60;;;;;;;8.28;47.46;100575.34;103157;1305;24252;-30
2022/03/24 07:55:31;;;;;;;37.70;21.70;;;;;;;8.42;47.51;100576.94;103135;1308;22774;-25
2022/03/24 07:57:59;;;;;;;45.60;23.40;;;;;;;8.75;46.46;100577.04;103197;1305;22718;-29
2022/03/24 08:00:24;;;;;;;56.30;26.10;;;;;;;8.63;46.33;100579.45;103125;1306;24268;-29
2022/03/24 08:02:52;;;;;;;51.80;20.80;;;;;;;8.96;46.01;100575.39;103191;1305;24481;-25
2022/03/24 08:05:18;;;;;;;52.20;24.00;;;;;;;8.88;46.11;100583.00;103133;1306;22862;-28
2022/03/24 08:07:44;;;;;;;52.40;26.00;;;;;;;9.18;45.96;100579.10;103249;1305;24301;-28
2022/03/24 08:10:10;;;;;;;43.50;22.50;;;;;;;9.40;44.99;100580.90;103128;1308;24326;-25
2022/03/24 08:12:36;;;;;;;65.60;27.10;;;;;;;9.28;45.68;100587.37;103195;1305;24357;-29
2022/03/24 08:15:02;;;;;;;39.80;20.10;;;;;;;9.57;45.13;100587.39;103205;1305;24300;-26
2022/03/24 08:17:28;;;;;;;43.80;22.00;;;;;;;9.78;45.18;100588.04;103246;1305;24294;-29
2022/03/24 08:19:53;;;;;;;44.80;22.90;;;;;;;10.10;44.42;100588.10;103106;1308;24220;-27
2022/03/24 08:22:19;;;;;;;52.50;23.50;;;;;;;10.54;44.44;100584.16;103181;1305;24336;-24
2022/03/24 08:24:45;;;;;;;51.50;24.90;;;;;;;10.88;43.09;100582.68;103119;1306;24259;-25
2022/03/24 08:27:11;;;;;;;51.60;22.30;;;;;;;11.12;42.15;100583.15;103174;1305;24189;-25
2022/03/24 08:29:36;;;;;;;56.60;21.90;;;;;;;11.22;41.68;100583.92;103062;1308;24221;-27
2022/03/24 08:32:03;;;;;;;37.80;19.40;;;;;;;11.31;41.20;100585.13;103122;1306;24439;-25
2022/03/24 08:34:29;;;;;;;35.60;21.40;;;;;;;11.48;40.62;100580.66;103187;1305;24308;-25
2022/03/24 08:36:54;;;;;;;38.60;20.50;;;;;;;11.65;40.94;100583.92;103104;1308;24275;-25
2022/03/24 08:39:20;;;;;;;40.00;21.40;;;;;;;11.73;40.51;100584.48;103250;1305;22530;-25
2022/03/24 08:41:46;;;;;;;39.80;21.90;;;;;;;12.16;39.68;100580.81;103110;1307;23006;-26
2022/03/24 08:44:12;;;;;;;31.70;15.90;;;;;;;12.45;38.89;100582.00;103125;1306;22506;-28
2022/03/24 08:46:37;;;;;;;40.90;21.10;;;;;;;12.89;39.08;100582.84;103186;1308;24243;-26
2022/03/24 08:49:03;;;;;;;48.90;20.30;;;;;;;13.34;39.53;100583.46;103229;1304;24218;-25
2022/03/24 08:51:29;;;;;;;39.90;20.50;;;;;;;13.55;36.80;100582.12;103149;1306;22954;-28
2022/03/24 08:53:55;;;;;;;37.30;20.80;;;;;;;13.75;37.38;100582.25;103198;1305;24224;-25
2022/03/24 08:56:20;;;;;;;47.50;21.00;;;;;;;14.00;37.68;100581.34;103110;1308;24267;-28
2022/03/24 08:58:47;;;;;;;37.60;22.00;;;;;;;14.54;36.78;100577.83;103258;1305;24217;-25
2022/03/24 09:01:14;;;;;;;50.10;19.60;;;;;;;14.86;36.64;100576.49;103148;1308;24263;-28
2022/03/24 09:03:39;;;;;;;34.50;19.30;;;;;;;15.00;34.93;100580.60;103216;1305;24425;-28
2022/03/24 09:06:06;;;;;;;31.90;18.70;;;;;;;14.47;34.40;100579.58;103155;1308;24489;-24
2022/03/24 09:08:32;;;;;;;58.10;19.90;;;;;;;14.85;35.77;100577.27;103234;1305;24324;-28
2022/03/24 09:10:57;;;;;;;30.70;18.70;;;;;;;15.38;34.42;100581.69;103141;1305;24388;-28
2022/03/24 09:13:24;;;;;;;27.20;18.10;;;;;;;15.64;33.46;100581.48;103164;1305;24362;-28
2022/03/24 09:15:50;;;;;;;31.80;19.20;;;;;;;15.42;32.60;100583.67;103214;1306;24229;-24
2022/03/24 09:18:16;;;;;;;27.00;16.60;;;;;;;15.30;32.48;100580.88;103253;1305;25860;-28
2022/03/24 09:20:42;;;;;;;32.50;16.80;;;;;;;14.78;31.77;100581.71;103129;1308;24323;-24
2022/03/24 09:23:08;;;;;;;37.80;19.90;;;;;;;14.63;32.75;100579.58;103179;1305;24316;-28
2022/03/24 09:25:34;;;;;;;26.70;15.90;;;;;;;15.23;33.16;100581.42;103122;1306;24374;-28
2022/03/24 09:28:00;;;;;;;23.70;15.40;;;;;;;15.19;31.75;100583.46;103238;1305;24244;-28
2022/03/24 09:30:25;;;;;;;32.10;15.80;;;;;;;14.73;31.72;100580.45;103125;1308;24224;-27
2022/03/24 09:32:52;;;;;;;25.90;15.50;;;;;;;15.05;30.98;100581.97;103173;1305;22506;-28
2022/03/24 09:35:18;;;;;;;35.40;16.00;;;;;;;14.98;29.75;100578.66;103181;1308;24181;-30
2022/03/24 09:37:44;;;;;;;26.20;16.30;;;;;;;15.15;29.64;100586.11;103214;1305;24203;-27
2022/03/24 09:40:10;;;;;;;21.20;14.20;;;;;;;15.14;29.37;100582.94;103167;1307;24332;-25
2022/03/24 09:42:36;;;;;;;22.40;14.60;;;;;;;14.61;29.67;100583.17;103158;1305;24180;-28
2022/03/24 09:45:03;;;;;;;21.80;14.20;;;;;;;14.22;29.47;100585.73;103258;1307;24210;-24
2022/03/24 09:47:30;;;;;;;19.30;11.80;;;;;;;14.40;29.43;100588.15;103238;1305;22521;-26
2022/03/24 09:49:56;;;;;;;21.60;14.70;;;;;;;14.66;30.14;100592.73;103167;1305;24196;-28
2022/03/24 09:52:22;;;;;;;19.00;12.00;;;;;;;15.26;29.98;100591.15;103183;1305;22649;-28
2022/03/24 09:54:48;;;;;;;25.10;13.40;;;;;;;15.59;29.23;100589.73;103156;1307;24255;-28
2022/03/24 09:57:14;;;;;;;18.00;11.30;;;;;;;15.11;27.83;100589.63;103203;1305;24278;-28
2022/03/24 09:59:44;;;;;;;28.10;14.90;;;;;;;15.30;27.88;100591.94;103172;1307;24321;-25
2022/03/24 10:02:10;;;;;;;18.20;10.50;;;;;;;15.36;27.76;100593.41;103194;1305;24266;-28
2022/03/24 10:04:43;;;;;;;18.90;12.40;;;;;;;15.77;26.64;100590.62;103111;1307;24224;-24
2022/03/24 10:07:08;;;;;;;13.10;9.30;;;;;;;15.84;26.31;100592.13;103239;1305;24330;-24
2022/03/24 10:09:38;;;;;;;17.60;10.70;;;;;;;15.85;25.57;100592.17;103180;1305;22498;-28
2022/03/24 10:12:05;;;;;;;13.30;9.10;;;;;;;15.34;23.55;100594.56;103213;1305;24206;-28
2022/03/24 10:14:31;;;;;;;12.40;7.90;;;;;;;14.87;23.38;100593.98;103189;1305;24330;-24
2022/03/24 10:17:06;;;;;;;15.00;10.10;;;;;;;15.40;25.11;100599.23;103252;1305;24260;-24
2022/03/24 10:19:31;;;;;;;25.60;13.10;;;;;;;15.96;25.57;100597.00;103194;1306;24415;-28
2022/03/24 10:21:57;;;;;;;15.30;10.50;;;;;;;16.18;24.97;100593.91;103220;1305;24257;-25
2022/03/24 10:24:23;;;;;;;17.30;11.90;;;;;;;16.43;24.23;100589.14;103128;1308;24244;-28
2022/03/24 10:27:00;;;;;;;12.50;8.10;;;;;;;16.18;23.67;100591.59;103178;1305;24381;-24
2022/03/24 10:29:26;;;;;;;7.70;6.70;;;;;;;16.02;21.01;100591.64;103117;1306;24375;-28
2022/03/24 10:31:55;;;;;;;13.50;7.40;;;;;;;15.80;18.67;100590.06;103211;1304;24320;-27
2022/03/24 10:34:28;;;;;;;10.80;8.40;;;;;;;16.11;19.69;100589.77;103184;1308;22531;-25
2022/03/24 10:36:54;;;;;;;16.00;11.00;;;;;;;16.73;22.69;100581.66;103258;1305;24275;-28
2022/03/24 10:39:24;;;;;;;20.30;13.50;;;;;;;17.08;23.66;100585.20;103139;1308;24228;-28
2022/03/24 10:41:49;;;;;;;17.30;12.00;;;;;;;17.00;23.77;100585.13;103227;1305;24247;-28
2022/03/24 10:44:15;;;;;;;25.10;12.50;;;;;;;17.38;23.26;100578.05;103135;1308;24221;-28
2022/03/24 10:46:42;;;;;;;16.00;10.60;;;;;;;17.02;23.13;100577.39;103168;1305;24287;-28
2022/03/24 10:49:13;;;;;;;12.00;8.90;;;;;;;17.12;22.74;100575.41;103201;1305;24255;-25
2022/03/24 10:51:42;;;;;;;14.10;10.20;;;;;;;16.83;22.56;100573.27;103163;1307;22739;-28
2022/03/24 10:54:15;;;;;;;17.80;10.60;;;;;;;17.15;21.83;100564.17;103220;1305;24265;-28
2022/03/24 10:56:46;;;;;;;16.00;10.90;;;;;;;16.47;21.95;100565.58;103137;1306;22941;-24
2022/03/24 10:59:12;;;;;;;13.20;9.80;;;;;;;16.74;22.29;100562.85;103225;1305;23945;-25
2022/03/24 11:01:38;;;;;;;17.20;11.10;;;;;;;17.33;22.28;100559.30;103134;1308;24311;-25
2022/03/24 11:04:04;;;;;;;16.00;11.50;;;;;;;17.07;22.35;100561.95;103253;1305;24219;-24
2022/03/24 11:06:30;;;;;;;17.00;10.70;;;;;;;17.77;22.00;100562.16;103143;1307;22495;-24